sensor_id;sensor_type;location;lat;lon;timestamp;temperature;humidity
16441;DHT22;8330;-33.858;151.184;2022-07-29T00:01:47;14.50;99.90
16441;DHT22;8330;-33.858;151.184;2022-07-29T00:04:20;14.60;99.90
16441;DHT22;8330;-33.858;151.184;2022-07-29T00:06:50;14.60;99.90
16441;DHT22;8330;-33.858;151.184;2022-07-29T00:09:21;14.70;99.90
16441;DHT22;8330;-33.858;151.184;2022-07-29T00:11:52;14.70;99.90
16441;DHT22;8330;-33.858;151.184;2022-07-29T00:14:25;14.80;99.90
16441;DHT22;8330;-33.858;151.184;2022-07-29T00:16:56;14.90;99.90
16441;DHT22;8330;-33.858;151.184;2022-07-29T00:19:27;14.90;99.90
16441;DHT22;8330;-33.858;151.184;2022-07-29T00:21:58;15.00;99.90
16441;DHT22;8330;-33.858;151.184;2022-07-29T00:24:28;15.20;99.90
16441;DHT22;8330;-33.858;151.184;2022-07-29T00:26:59;15.20;99.90
16441;DHT22;8330;-33.858;151.184;2022-07-29T00:29:34;15.20;99.90
16441;DHT22;8330;-33.858;151.184;2022-07-29T00:32:05;15.30;99.90
16441;DHT22;8330;-33.858;151.184;2022-07-29T00:34:36;15.30;99.90
16441;DHT22;8330;-33.858;151.184;2022-07-29T00:37:23;15.20;99.90
16441;DHT22;8330;-33.858;151.184;2022-07-29T00:39:53;15.30;99.90
16441;DHT22;8330;-33.858;151.184;2022-07-29T00:42:25;15.30;99.90
16441;DHT22;8330;-33.858;151.184;2022-07-29T00:44:58;15.30;99.90
16441;DHT22;8330;-33.858;151.184;2022-07-29T00:47:28;15.30;99.90
16441;DHT22;8330;-33.858;151.184;2022-07-29T00:49:59;15.30;99.90
16441;DHT22;8330;-33.858;151.184;2022-07-29T00:52:30;15.40;99.90
16441;DHT22;8330;-33.858;151.184;2022-07-29T00:55:01;15.50;99.90
16441;DHT22;8330;-33.858;151.184;2022-07-29T00:57:32;15.50;99.90
16441;DHT22;8330;-33.858;151.184;2022-07-29T01:00:08;15.50;99.90
16441;DHT22;8330;-33.858;151.184;2022-07-29T01:02:39;15.60;99.90
16441;DHT22;8330;-33.858;151.184;2022-07-29T01:05:12;15.60;99.90
16441;DHT22;8330;-33.858;151.184;2022-07-29T01:07:43;15.70;99.90
16441;DHT22;8330;-33.858;151.184;2022-07-29T01:10:16;15.70;99.90
16441;DHT22;8330;-33.858;151.184;2022-07-29T01:12:49;15.80;99.90
16441;DHT22;8330;-33.858;151.184;2022-07-29T01:15:22;15.70;99.90
16441;DHT22;8330;-33.858;151.184;2022-07-29T01:18:01;15.80;99.90
16441;DHT22;8330;-33.858;151.184;2022-07-29T01:20:44;15.90;99.90
16441;DHT22;8330;-33.858;151.184;2022-07-29T01:23:48;16.00;99.90
16441;DHT22;8330;-33.858;151.184;2022-07-29T01:26:40;16.00;99.90
16441;DHT22;8330;-33.858;151.184;2022-07-29T01:29:19;15.90;99.90
16441;DHT22;8330;-33.858;151.184;2022-07-29T01:31:56;16.00;99.90
16441;DHT22;8330;-33.858;151.184;2022-07-29T01:34:35;16.10;99.90
16441;DHT22;8330;-33.858;151.184;2022-07-29T01:37:15;16.20;99.90
16441;DHT22;8330;-33.858;151.184;2022-07-29T01:39:51;16.30;99.90
16441;DHT22;8330;-33.858;151.184;2022-07-29T01:42:30;16.30;99.90
16441;DHT22;8330;-33.858;151.184;2022-07-29T01:45:10;16.30;99.90
16441;DHT22;8330;-33.858;151.184;2022-07-29T01:47:46;16.30;99.90
16441;DHT22;8330;-33.858;151.184;2022-07-29T01:50:25;16.40;99.90
16441;DHT22;8330;-33.858;151.184;2022-07-29T01:52:58;16.50;99.90
16441;DHT22;8330;-33.858;151.184;2022-07-29T01:55:34;16.50;99.90
16441;DHT22;8330;-33.858;151.184;2022-07-29T01:58:06;16.50;99.90
16441;DHT22;8330;-33.858;151.184;2022-07-29T02:00:42;16.70;99.90
16441;DHT22;8330;-33.858;151.184;2022-07-29T02:03:16;16.70;99.90
16441;DHT22;8330;-33.858;151.184;2022-07-29T02:05:50;16.80;99.90
16441;DHT22;8330;-33.858;151.184;2022-07-29T02:08:23;16.90;99.90
16441;DHT22;8330;-33.858;151.184;2022-07-29T02:11:08;16.90;99.90
16441;DHT22;8330;-33.858;151.184;2022-07-29T02:13:39;16.90;99.90
16441;DHT22;8330;-33.858;151.184;2022-07-29T02:16:14;17.00;99.90
16441;DHT22;8330;-33.858;151.184;2022-07-29T02:18:46;17.00;99.90
16441;DHT22;8330;-33.858;151.184;2022-07-29T02:21:23;17.10;98.80
16441;DHT22;8330;-33.858;151.184;2022-07-29T02:23:56;17.20;97.30
16441;DHT22;8330;-33.858;151.184;2022-07-29T02:26:30;17.30;96.80
16441;DHT22;8330;-33.858;151.184;2022-07-29T02:29:05;17.40;95.80
16441;DHT22;8330;-33.858;151.184;2022-07-29T02:31:39;17.50;94.30
16441;DHT22;8330;-33.858;151.184;2022-07-29T02:34:11;17.40;90.80
16441;DHT22;8330;-33.858;151.184;2022-07-29T02:36:45;17.30;92.40
16441;DHT22;8330;-33.858;151.184;2022-07-29T02:39:16;17.40;93.10
16441;DHT22;8330;-33.858;151.184;2022-07-29T02:41:49;17.50;92.70
16441;DHT22;8330;-33.858;151.184;2022-07-29T02:44:21;17.50;92.10
16441;DHT22;8330;-33.858;151.184;2022-07-29T02:47:04;17.50;89.90
16441;DHT22;8330;-33.858;151.184;2022-07-29T02:49:40;17.60;91.00
16441;DHT22;8330;-33.858;151.184;2022-07-29T02:52:15;17.50;87.20
16441;DHT22;8330;-33.858;151.184;2022-07-29T02:54:54;17.50;83.80
16441;DHT22;8330;-33.858;151.184;2022-07-29T02:57:31;17.40;80.40
16441;DHT22;8330;-33.858;151.184;2022-07-29T03:00:06;17.40;82.20
16441;DHT22;8330;-33.858;151.184;2022-07-29T03:02:42;17.50;83.10
16441;DHT22;8330;-33.858;151.184;2022-07-29T03:05:18;17.60;78.70
16441;DHT22;8330;-33.858;151.184;2022-07-29T03:07:53;17.70;76.30
16441;DHT22;8330;-33.858;151.184;2022-07-29T03:10:26;17.70;71.60
16441;DHT22;8330;-33.858;151.184;2022-07-29T03:12:57;17.60;67.80
16441;DHT22;8330;-33.858;151.184;2022-07-29T03:15:29;17.60;71.40
16441;DHT22;8330;-33.858;151.184;2022-07-29T03:18:03;17.70;72.40
16441;DHT22;8330;-33.858;151.184;2022-07-29T03:20:34;17.70;71.10
16441;DHT22;8330;-33.858;151.184;2022-07-29T03:23:06;17.80;73.20
16441;DHT22;8330;-33.858;151.184;2022-07-29T03:25:38;17.80;71.30
16441;DHT22;8330;-33.858;151.184;2022-07-29T03:28:09;17.80;72.70
16441;DHT22;8330;-33.858;151.184;2022-07-29T03:30:40;17.70;75.00
16441;DHT22;8330;-33.858;151.184;2022-07-29T03:33:13;17.70;70.20
16441;DHT22;8330;-33.858;151.184;2022-07-29T03:35:44;17.60;70.80
16441;DHT22;8330;-33.858;151.184;2022-07-29T03:38:15;17.60;72.30
16441;DHT22;8330;-33.858;151.184;2022-07-29T03:40:51;17.40;74.10
16441;DHT22;8330;-33.858;151.184;2022-07-29T03:43:24;17.40;74.30
16441;DHT22;8330;-33.858;151.184;2022-07-29T03:45:59;17.40;72.60
16441;DHT22;8330;-33.858;151.184;2022-07-29T03:48:34;17.30;71.80
16441;DHT22;8330;-33.858;151.184;2022-07-29T03:51:09;17.30;74.20
16441;DHT22;8330;-33.858;151.184;2022-07-29T03:53:41;17.30;77.40
16441;DHT22;8330;-33.858;151.184;2022-07-29T03:56:16;17.20;82.00
16441;DHT22;8330;-33.858;151.184;2022-07-29T03:58:50;17.20;89.70
16441;DHT22;8330;-33.858;151.184;2022-07-29T04:01:22;17.20;87.80
16441;DHT22;8330;-33.858;151.184;2022-07-29T04:03:56;17.20;90.60
16441;DHT22;8330;-33.858;151.184;2022-07-29T04:06:27;17.20;90.20
16441;DHT22;8330;-33.858;151.184;2022-07-29T04:08:58;17.30;94.90
16441;DHT22;8330;-33.858;151.184;2022-07-29T04:11:30;17.20;88.70
16441;DHT22;8330;-33.858;151.184;2022-07-29T04:14:01;17.30;90.00
16441;DHT22;8330;-33.858;151.184;2022-07-29T04:16:32;17.20;87.20
16441;DHT22;8330;-33.858;151.184;2022-07-29T04:19:04;17.10;90.50
16441;DHT22;8330;-33.858;151.184;2022-07-29T04:21:38;17.10;89.80
16441;DHT22;8330;-33.858;151.184;2022-07-29T04:24:12;17.10;92.00
16441;DHT22;8330;-33.858;151.184;2022-07-29T04:26:44;17.00;91.10
16441;DHT22;8330;-33.858;151.184;2022-07-29T04:29:24;17.00;90.80
16441;DHT22;8330;-33.858;151.184;2022-07-29T04:31:55;16.90;90.60
16441;DHT22;8330;-33.858;151.184;2022-07-29T04:34:34;16.90;90.90
16441;DHT22;8330;-33.858;151.184;2022-07-29T04:37:09;16.80;92.00
16441;DHT22;8330;-33.858;151.184;2022-07-29T04:39:45;16.80;92.20
16441;DHT22;8330;-33.858;151.184;2022-07-29T04:42:17;16.80;92.10
16441;DHT22;8330;-33.858;151.184;2022-07-29T04:44:51;16.80;92.10
16441;DHT22;8330;-33.858;151.184;2022-07-29T04:47:24;16.70;91.60
16441;DHT22;8330;-33.858;151.184;2022-07-29T04:50:02;16.70;91.60
16441;DHT22;8330;-33.858;151.184;2022-07-29T04:52:35;16.70;93.10
16441;DHT22;8330;-33.858;151.184;2022-07-29T04:55:09;16.70;94.50
16441;DHT22;8330;-33.858;151.184;2022-07-29T04:57:41;16.80;93.30
16441;DHT22;8330;-33.858;151.184;2022-07-29T05:00:14;16.70;94.70
16441;DHT22;8330;-33.858;151.184;2022-07-29T05:02:46;16.70;93.30
16441;DHT22;8330;-33.858;151.184;2022-07-29T05:05:20;16.70;94.10
16441;DHT22;8330;-33.858;151.184;2022-07-29T05:07:51;16.60;94.90
16441;DHT22;8330;-33.858;151.184;2022-07-29T05:10:21;16.60;95.90
16441;DHT22;8330;-33.858;151.184;2022-07-29T05:12:52;16.60;97.70
16441;DHT22;8330;-33.858;151.184;2022-07-29T05:15:27;16.60;95.70
16441;DHT22;8330;-33.858;151.184;2022-07-29T05:17:58;16.60;98.10
16441;DHT22;8330;-33.858;151.184;2022-07-29T05:20:31;16.50;97.50
16441;DHT22;8330;-33.858;151.184;2022-07-29T05:23:03;16.50;96.30
16441;DHT22;8330;-33.858;151.184;2022-07-29T05:25:39;16.50;97.00
16441;DHT22;8330;-33.858;151.184;2022-07-29T05:28:11;16.40;95.30
16441;DHT22;8330;-33.858;151.184;2022-07-29T05:30:42;16.30;94.80
16441;DHT22;8330;-33.858;151.184;2022-07-29T05:33:14;16.30;91.30
16441;DHT22;8330;-33.858;151.184;2022-07-29T05:35:46;16.30;91.70
16441;DHT22;8330;-33.858;151.184;2022-07-29T05:38:17;16.40;92.40
16441;DHT22;8330;-33.858;151.184;2022-07-29T05:40:47;16.30;91.40
16441;DHT22;8330;-33.858;151.184;2022-07-29T05:43:18;16.30;90.80
16441;DHT22;8330;-33.858;151.184;2022-07-29T05:45:49;16.30;93.40
16441;DHT22;8330;-33.858;151.184;2022-07-29T05:48:20;16.30;95.80
16441;DHT22;8330;-33.858;151.184;2022-07-29T05:50:53;16.30;95.20
16441;DHT22;8330;-33.858;151.184;2022-07-29T05:53:24;16.20;95.00
16441;DHT22;8330;-33.858;151.184;2022-07-29T05:55:55;16.20;96.20
16441;DHT22;8330;-33.858;151.184;2022-07-29T05:58:25;16.20;97.30
16441;DHT22;8330;-33.858;151.184;2022-07-29T06:00:58;16.20;96.10
16441;DHT22;8330;-33.858;151.184;2022-07-29T06:03:29;16.20;96.10
16441;DHT22;8330;-33.858;151.184;2022-07-29T06:06:01;16.20;97.20
16441;DHT22;8330;-33.858;151.184;2022-07-29T06:08:33;16.20;96.70
16441;DHT22;8330;-33.858;151.184;2022-07-29T06:11:04;16.30;97.70
16441;DHT22;8330;-33.858;151.184;2022-07-29T06:13:38;16.30;95.70
16441;DHT22;8330;-33.858;151.184;2022-07-29T06:16:09;16.30;94.90
16441;DHT22;8330;-33.858;151.184;2022-07-29T06:18:40;16.30;97.20
16441;DHT22;8330;-33.858;151.184;2022-07-29T06:21:13;16.30;96.50
16441;DHT22;8330;-33.858;151.184;2022-07-29T06:23:45;16.40;98.50
16441;DHT22;8330;-33.858;151.184;2022-07-29T06:26:16;16.50;99.20
16441;DHT22;8330;-33.858;151.184;2022-07-29T06:28:46;16.40;98.90
16441;DHT22;8330;-33.858;151.184;2022-07-29T06:31:17;16.40;98.30
16441;DHT22;8330;-33.858;151.184;2022-07-29T06:33:48;16.40;99.90
16441;DHT22;8330;-33.858;151.184;2022-07-29T06:36:23;16.30;98.80
16441;DHT22;8330;-33.858;151.184;2022-07-29T06:38:57;16.30;99.40
16441;DHT22;8330;-33.858;151.184;2022-07-29T06:41:32;16.20;99.90
16441;DHT22;8330;-33.858;151.184;2022-07-29T06:44:03;16.10;99.90
16441;DHT22;8330;-33.858;151.184;2022-07-29T06:46:34;16.00;99.90
16441;DHT22;8330;-33.858;151.184;2022-07-29T06:49:09;16.00;99.90
16441;DHT22;8330;-33.858;151.184;2022-07-29T06:51:42;15.90;99.90
16441;DHT22;8330;-33.858;151.184;2022-07-29T06:54:14;15.80;99.90
16441;DHT22;8330;-33.858;151.184;2022-07-29T06:56:47;15.80;99.90
16441;DHT22;8330;-33.858;151.184;2022-07-29T06:59:18;15.70;99.90
16441;DHT22;8330;-33.858;151.184;2022-07-29T07:01:48;15.70;99.90
16441;DHT22;8330;-33.858;151.184;2022-07-29T07:04:19;15.70;99.90
16441;DHT22;8330;-33.858;151.184;2022-07-29T07:06:53;15.60;99.90
16441;DHT22;8330;-33.858;151.184;2022-07-29T07:09:28;15.50;99.90
16441;DHT22;8330;-33.858;151.184;2022-07-29T07:11:59;15.50;99.90
16441;DHT22;8330;-33.858;151.184;2022-07-29T07:14:29;15.40;99.90
16441;DHT22;8330;-33.858;151.184;2022-07-29T07:17:01;15.40;99.90
16441;DHT22;8330;-33.858;151.184;2022-07-29T07:19:34;15.30;99.90
16441;DHT22;8330;-33.858;151.184;2022-07-29T07:22:11;15.20;99.90
16441;DHT22;8330;-33.858;151.184;2022-07-29T07:24:43;15.20;99.90
16441;DHT22;8330;-33.858;151.184;2022-07-29T07:27:14;15.20;99.90
16441;DHT22;8330;-33.858;151.184;2022-07-29T07:29:55;15.20;99.90
16441;DHT22;8330;-33.858;151.184;2022-07-29T07:32:28;15.10;99.90
16441;DHT22;8330;-33.858;151.184;2022-07-29T07:34:59;15.10;99.90
16441;DHT22;8330;-33.858;151.184;2022-07-29T07:37:32;15.10;99.90
16441;DHT22;8330;-33.858;151.184;2022-07-29T07:40:04;15.10;99.90
16441;DHT22;8330;-33.858;151.184;2022-07-29T07:42:35;15.00;99.90
16441;DHT22;8330;-33.858;151.184;2022-07-29T07:45:06;15.00;99.90
16441;DHT22;8330;-33.858;151.184;2022-07-29T07:47:39;15.00;99.90
16441;DHT22;8330;-33.858;151.184;2022-07-29T07:50:11;15.00;99.90
16441;DHT22;8330;-33.858;151.184;2022-07-29T07:52:50;15.00;99.90
16441;DHT22;8330;-33.858;151.184;2022-07-29T07:55:22;15.00;99.90
16441;DHT22;8330;-33.858;151.184;2022-07-29T07:57:53;15.00;99.90
16441;DHT22;8330;-33.858;151.184;2022-07-29T08:00:24;15.00;99.90
16441;DHT22;8330;-33.858;151.184;2022-07-29T08:02:54;15.00;99.90
16441;DHT22;8330;-33.858;151.184;2022-07-29T08:05:25;15.00;99.90
16441;DHT22;8330;-33.858;151.184;2022-07-29T08:07:58;15.00;99.90
16441;DHT22;8330;-33.858;151.184;2022-07-29T08:10:29;14.90;99.90
16441;DHT22;8330;-33.858;151.184;2022-07-29T08:13:16;14.90;99.90
16441;DHT22;8330;-33.858;151.184;2022-07-29T08:15:50;14.90;99.90
16441;DHT22;8330;-33.858;151.184;2022-07-29T08:18:25;14.90;99.90
16441;DHT22;8330;-33.858;151.184;2022-07-29T08:20:57;14.90;99.90
16441;DHT22;8330;-33.858;151.184;2022-07-29T08:23:29;14.90;99.90
16441;DHT22;8330;-33.858;151.184;2022-07-29T08:26:06;14.90;99.90
16441;DHT22;8330;-33.858;151.184;2022-07-29T08:28:38;14.80;99.90
16441;DHT22;8330;-33.858;151.184;2022-07-29T08:31:09;14.80;99.90
16441;DHT22;8330;-33.858;151.184;2022-07-29T08:33:40;14.80;99.90
16441;DHT22;8330;-33.858;151.184;2022-07-29T08:36:10;14.80;99.90
16441;DHT22;8330;-33.858;151.184;2022-07-29T08:38:44;14.80;99.90
16441;DHT22;8330;-33.858;151.184;2022-07-29T08:41:17;14.80;99.90
16441;DHT22;8330;-33.858;151.184;2022-07-29T08:43:50;14.70;99.90
16441;DHT22;8330;-33.858;151.184;2022-07-29T08:46:22;14.80;99.90
16441;DHT22;8330;-33.858;151.184;2022-07-29T08:48:52;14.70;99.90
16441;DHT22;8330;-33.858;151.184;2022-07-29T08:51:25;14.70;99.90
16441;DHT22;8330;-33.858;151.184;2022-07-29T08:53:58;14.70;99.90
16441;DHT22;8330;-33.858;151.184;2022-07-29T08:56:30;14.60;99.90
16441;DHT22;8330;-33.858;151.184;2022-07-29T08:59:03;14.60;99.90
16441;DHT22;8330;-33.858;151.184;2022-07-29T09:01:37;14.60;99.90
16441;DHT22;8330;-33.858;151.184;2022-07-29T09:04:11;14.60;99.90
16441;DHT22;8330;-33.858;151.184;2022-07-29T09:06:45;14.60;99.90
16441;DHT22;8330;-33.858;151.184;2022-07-29T09:09:18;14.60;99.90
16441;DHT22;8330;-33.858;151.184;2022-07-29T09:11:49;14.60;99.90
16441;DHT22;8330;-33.858;151.184;2022-07-29T09:14:20;14.60;99.90
16441;DHT22;8330;-33.858;151.184;2022-07-29T09:16:53;14.60;99.90
16441;DHT22;8330;-33.858;151.184;2022-07-29T09:19:29;14.60;99.90
16441;DHT22;8330;-33.858;151.184;2022-07-29T09:22:00;14.60;99.90
16441;DHT22;8330;-33.858;151.184;2022-07-29T09:24:45;14.50;99.90
16441;DHT22;8330;-33.858;151.184;2022-07-29T09:27:25;14.50;99.90
16441;DHT22;8330;-33.858;151.184;2022-07-29T09:30:00;14.50;99.90
16441;DHT22;8330;-33.858;151.184;2022-07-29T09:32:32;14.60;99.90
16441;DHT22;8330;-33.858;151.184;2022-07-29T09:35:19;14.50;99.90
16441;DHT22;8330;-33.858;151.184;2022-07-29T09:37:51;14.50;99.90
16441;DHT22;8330;-33.858;151.184;2022-07-29T09:40:27;14.60;99.90
16441;DHT22;8330;-33.858;151.184;2022-07-29T09:42:57;14.50;99.90
16441;DHT22;8330;-33.858;151.184;2022-07-29T09:45:40;14.40;99.90
16441;DHT22;8330;-33.858;151.184;2022-07-29T09:48:17;14.40;99.90
16441;DHT22;8330;-33.858;151.184;2022-07-29T09:50:48;14.40;99.90
16441;DHT22;8330;-33.858;151.184;2022-07-29T09:53:33;14.40;99.90
16441;DHT22;8330;-33.858;151.184;2022-07-29T09:56:06;14.40;99.90
16441;DHT22;8330;-33.858;151.184;2022-07-29T09:58:38;14.40;99.90
16441;DHT22;8330;-33.858;151.184;2022-07-29T10:01:09;14.30;99.90
16441;DHT22;8330;-33.858;151.184;2022-07-29T10:03:52;14.30;99.90
16441;DHT22;8330;-33.858;151.184;2022-07-29T10:06:24;14.30;99.90
16441;DHT22;8330;-33.858;151.184;2022-07-29T10:09:06;14.30;99.90
16441;DHT22;8330;-33.858;151.184;2022-07-29T10:11:38;14.20;99.90
16441;DHT22;8330;-33.858;151.184;2022-07-29T10:14:09;14.20;99.90
16441;DHT22;8330;-33.858;151.184;2022-07-29T10:16:40;14.10;99.90
16441;DHT22;8330;-33.858;151.184;2022-07-29T10:19:10;14.10;99.90
16441;DHT22;8330;-33.858;151.184;2022-07-29T10:21:42;14.00;99.90
16441;DHT22;8330;-33.858;151.184;2022-07-29T10:24:14;14.00;99.90
16441;DHT22;8330;-33.858;151.184;2022-07-29T10:26:47;14.00;99.90
16441;DHT22;8330;-33.858;151.184;2022-07-29T10:29:18;13.90;99.90
16441;DHT22;8330;-33.858;151.184;2022-07-29T10:31:58;13.80;99.90
16441;DHT22;8330;-33.858;151.184;2022-07-29T10:34:43;13.80;99.90
16441;DHT22;8330;-33.858;151.184;2022-07-29T10:37:22;13.70;99.90
16441;DHT22;8330;-33.858;151.184;2022-07-29T10:40:03;13.70;99.90
16441;DHT22;8330;-33.858;151.184;2022-07-29T10:43:03;13.70;99.90
16441;DHT22;8330;-33.858;151.184;2022-07-29T10:45:38;13.70;99.90
16441;DHT22;8330;-33.858;151.184;2022-07-29T10:48:09;13.60;99.90
16441;DHT22;8330;-33.858;151.184;2022-07-29T10:50:56;13.50;99.90
16441;DHT22;8330;-33.858;151.184;2022-07-29T10:53:49;13.60;99.90
16441;DHT22;8330;-33.858;151.184;2022-07-29T10:56:27;13.50;99.90
16441;DHT22;8330;-33.858;151.184;2022-07-29T10:59:27;13.50;99.90
16441;DHT22;8330;-33.858;151.184;2022-07-29T11:01:59;13.50;99.90
16441;DHT22;8330;-33.858;151.184;2022-07-29T11:05:00;13.50;99.90
16441;DHT22;8330;-33.858;151.184;2022-07-29T11:07:31;13.40;99.90
16441;DHT22;8330;-33.858;151.184;2022-07-29T11:10:20;13.40;99.90
16441;DHT22;8330;-33.858;151.184;2022-07-29T11:12:51;13.40;99.90
16441;DHT22;8330;-33.858;151.184;2022-07-29T11:15:25;13.30;99.90
16441;DHT22;8330;-33.858;151.184;2022-07-29T11:18:05;13.30;99.90
16441;DHT22;8330;-33.858;151.184;2022-07-29T11:20:38;13.30;99.90
16441;DHT22;8330;-33.858;151.184;2022-07-29T11:23:23;13.30;99.90
16441;DHT22;8330;-33.858;151.184;2022-07-29T11:26:16;13.20;99.90
16441;DHT22;8330;-33.858;151.184;2022-07-29T11:28:59;13.20;99.90
16441;DHT22;8330;-33.858;151.184;2022-07-29T11:31:37;13.10;99.90
16441;DHT22;8330;-33.858;151.184;2022-07-29T11:34:19;13.10;99.90
16441;DHT22;8330;-33.858;151.184;2022-07-29T11:37:17;13.00;99.90
16441;DHT22;8330;-33.858;151.184;2022-07-29T11:40:10;13.00;99.90
16441;DHT22;8330;-33.858;151.184;2022-07-29T11:42:51;13.10;99.90
16441;DHT22;8330;-33.858;151.184;2022-07-29T11:45:26;13.10;99.90
16441;DHT22;8330;-33.858;151.184;2022-07-29T11:48:02;13.10;99.90
16441;DHT22;8330;-33.858;151.184;2022-07-29T11:50:36;13.10;99.90
16441;DHT22;8330;-33.858;151.184;2022-07-29T11:53:13;13.00;99.90
16441;DHT22;8330;-33.858;151.184;2022-07-29T11:55:43;12.90;99.90
16441;DHT22;8330;-33.858;151.184;2022-07-29T11:58:14;12.90;99.90
16441;DHT22;8330;-33.858;151.184;2022-07-29T12:00:47;12.90;99.90
16441;DHT22;8330;-33.858;151.184;2022-07-29T12:03:27;12.90;99.90
16441;DHT22;8330;-33.858;151.184;2022-07-29T12:05:58;12.90;99.90
16441;DHT22;8330;-33.858;151.184;2022-07-29T12:08:29;12.90;99.90
16441;DHT22;8330;-33.858;151.184;2022-07-29T12:11:00;12.90;99.90
16441;DHT22;8330;-33.858;151.184;2022-07-29T12:13:39;12.80;99.90
16441;DHT22;8330;-33.858;151.184;2022-07-29T12:16:10;12.80;99.90
16441;DHT22;8330;-33.858;151.184;2022-07-29T12:18:56;12.80;99.90
16441;DHT22;8330;-33.858;151.184;2022-07-29T12:21:35;12.90;99.90
16441;DHT22;8330;-33.858;151.184;2022-07-29T12:24:13;12.90;99.90
16441;DHT22;8330;-33.858;151.184;2022-07-29T12:26:54;12.90;99.90
16441;DHT22;8330;-33.858;151.184;2022-07-29T12:29:26;12.90;99.90
16441;DHT22;8330;-33.858;151.184;2022-07-29T12:31:56;12.90;99.90
16441;DHT22;8330;-33.858;151.184;2022-07-29T12:34:29;12.90;99.90
16441;DHT22;8330;-33.858;151.184;2022-07-29T12:37:00;12.80;99.90
16441;DHT22;8330;-33.858;151.184;2022-07-29T12:39:31;12.80;99.90
16441;DHT22;8330;-33.858;151.184;2022-07-29T12:42:11;12.80;99.90
16441;DHT22;8330;-33.858;151.184;2022-07-29T12:44:46;12.80;99.90
16441;DHT22;8330;-33.858;151.184;2022-07-29T12:47:18;12.80;99.90
16441;DHT22;8330;-33.858;151.184;2022-07-29T12:50:09;12.70;99.90
16441;DHT22;8330;-33.858;151.184;2022-07-29T12:52:42;12.70;99.90
16441;DHT22;8330;-33.858;151.184;2022-07-29T12:55:13;12.60;99.90
16441;DHT22;8330;-33.858;151.184;2022-07-29T12:57:47;12.60;99.90
16441;DHT22;8330;-33.858;151.184;2022-07-29T13:00:23;12.70;99.90
16441;DHT22;8330;-33.858;151.184;2022-07-29T13:02:57;12.70;99.90
16441;DHT22;8330;-33.858;151.184;2022-07-29T13:05:42;12.70;99.90
16441;DHT22;8330;-33.858;151.184;2022-07-29T13:08:15;12.70;99.90
16441;DHT22;8330;-33.858;151.184;2022-07-29T13:10:46;12.70;99.90
16441;DHT22;8330;-33.858;151.184;2022-07-29T13:13:16;12.70;99.90
16441;DHT22;8330;-33.858;151.184;2022-07-29T13:15:53;12.60;99.90
16441;DHT22;8330;-33.858;151.184;2022-07-29T13:18:35;12.50;99.90
16441;DHT22;8330;-33.858;151.184;2022-07-29T13:21:14;12.50;99.90
16441;DHT22;8330;-33.858;151.184;2022-07-29T13:23:45;12.50;99.90
16441;DHT22;8330;-33.858;151.184;2022-07-29T13:26:15;12.50;99.90
16441;DHT22;8330;-33.858;151.184;2022-07-29T13:28:47;12.50;99.90
16441;DHT22;8330;-33.858;151.184;2022-07-29T13:31:18;12.50;99.90
16441;DHT22;8330;-33.858;151.184;2022-07-29T13:33:49;12.50;99.90
16441;DHT22;8330;-33.858;151.184;2022-07-29T13:36:22;12.50;99.90
16441;DHT22;8330;-33.858;151.184;2022-07-29T13:38:52;12.40;99.90
16441;DHT22;8330;-33.858;151.184;2022-07-29T13:41:23;12.30;99.90
16441;DHT22;8330;-33.858;151.184;2022-07-29T13:43:54;12.30;99.90
16441;DHT22;8330;-33.858;151.184;2022-07-29T13:46:24;12.30;99.90
16441;DHT22;8330;-33.858;151.184;2022-07-29T13:48:56;12.30;99.90
16441;DHT22;8330;-33.858;151.184;2022-07-29T13:51:28;12.30;99.90
16441;DHT22;8330;-33.858;151.184;2022-07-29T13:53:59;12.30;99.90
16441;DHT22;8330;-33.858;151.184;2022-07-29T13:56:30;12.30;99.90
16441;DHT22;8330;-33.858;151.184;2022-07-29T13:59:00;12.30;99.90
16441;DHT22;8330;-33.858;151.184;2022-07-29T14:01:31;12.30;99.90
16441;DHT22;8330;-33.858;151.184;2022-07-29T14:04:02;12.30;99.90
16441;DHT22;8330;-33.858;151.184;2022-07-29T14:06:34;12.30;99.90
16441;DHT22;8330;-33.858;151.184;2022-07-29T14:09:06;12.20;99.90
16441;DHT22;8330;-33.858;151.184;2022-07-29T14:11:37;12.10;99.90
16441;DHT22;8330;-33.858;151.184;2022-07-29T14:14:08;12.00;99.90
16441;DHT22;8330;-33.858;151.184;2022-07-29T14:16:38;12.00;99.90
16441;DHT22;8330;-33.858;151.184;2022-07-29T14:19:09;12.00;99.90
16441;DHT22;8330;-33.858;151.184;2022-07-29T14:21:42;12.00;99.90
16441;DHT22;8330;-33.858;151.184;2022-07-29T14:24:13;12.00;99.90
16441;DHT22;8330;-33.858;151.184;2022-07-29T14:26:43;11.90;99.90
16441;DHT22;8330;-33.858;151.184;2022-07-29T14:29:14;11.90;99.90
16441;DHT22;8330;-33.858;151.184;2022-07-29T14:31:45;11.70;99.90
16441;DHT22;8330;-33.858;151.184;2022-07-29T14:34:17;11.80;99.90
16441;DHT22;8330;-33.858;151.184;2022-07-29T14:36:49;11.70;99.90
16441;DHT22;8330;-33.858;151.184;2022-07-29T14:39:23;11.60;99.90
16441;DHT22;8330;-33.858;151.184;2022-07-29T14:41:53;11.60;99.90
16441;DHT22;8330;-33.858;151.184;2022-07-29T14:44:27;11.70;99.90
16441;DHT22;8330;-33.858;151.184;2022-07-29T14:46:59;11.50;99.90
16441;DHT22;8330;-33.858;151.184;2022-07-29T14:49:30;11.60;99.90
16441;DHT22;8330;-33.858;151.184;2022-07-29T14:52:02;11.60;99.90
16441;DHT22;8330;-33.858;151.184;2022-07-29T14:54:33;11.60;99.90
16441;DHT22;8330;-33.858;151.184;2022-07-29T14:57:04;11.60;99.90
16441;DHT22;8330;-33.858;151.184;2022-07-29T14:59:34;11.70;99.90
16441;DHT22;8330;-33.858;151.184;2022-07-29T15:02:05;11.70;99.90
16441;DHT22;8330;-33.858;151.184;2022-07-29T15:04:36;11.60;99.90
16441;DHT22;8330;-33.858;151.184;2022-07-29T15:07:09;11.60;99.90
16441;DHT22;8330;-33.858;151.184;2022-07-29T15:09:40;11.60;99.90
16441;DHT22;8330;-33.858;151.184;2022-07-29T15:12:12;11.70;99.90
16441;DHT22;8330;-33.858;151.184;2022-07-29T15:14:43;11.70;99.90
16441;DHT22;8330;-33.858;151.184;2022-07-29T15:17:14;11.70;99.90
16441;DHT22;8330;-33.858;151.184;2022-07-29T15:19:45;11.60;99.90
16441;DHT22;8330;-33.858;151.184;2022-07-29T15:22:18;11.70;99.90
16441;DHT22;8330;-33.858;151.184;2022-07-29T15:24:49;11.60;99.90
16441;DHT22;8330;-33.858;151.184;2022-07-29T15:27:20;11.70;99.90
16441;DHT22;8330;-33.858;151.184;2022-07-29T15:29:51;11.60;99.90
16441;DHT22;8330;-33.858;151.184;2022-07-29T15:32:21;11.60;99.90
16441;DHT22;8330;-33.858;151.184;2022-07-29T15:34:52;11.70;99.90
16441;DHT22;8330;-33.858;151.184;2022-07-29T15:37:24;11.70;99.90
16441;DHT22;8330;-33.858;151.184;2022-07-29T15:39:56;11.70;99.90
16441;DHT22;8330;-33.858;151.184;2022-07-29T15:42:26;11.60;99.90
16441;DHT22;8330;-33.858;151.184;2022-07-29T15:44:57;11.50;99.90